Time;durP1;ratioP1;P1;durP2;ratioP2;P2;SDS_P1;SDS_P2;PMS_P1;PMS_P2;Temp;Humidity;BMP_temperature;BMP_pressure;BME280_temperature;BME280_humidity;BME280_pressure;Samples;Min_cycle;Max_cycle;Signal;HPM_P1;HPM_P2
2022/04/28 00:00:14;;;;;;;3.30;3.00;;;;;;;-0.16;73.23;102284.22;5015342;28;20041;-68
2022/04/28 00:02:40;;;;;;;7.43;2.87;;;;;;;-0.03;73.29;102308.19;5015778;28;20261;-68
2022/04/28 00:05:08;;;;;;;4.83;3.20;;;;;;;-0.01;73.62;102317.69;5015652;28;20347;-66
2022/04/28 00:07:34;;;;;;;4.57;3.30;;;;;;;-0.04;73.37;102315.19;5015145;28;20049;-68
2022/04/28 00:10:00;;;;;;;4.53;2.80;;;;;;;0.00;72.93;102315.97;5015401;28;20387;-67
2022/04/28 00:12:26;;;;;;;3.40;2.73;;;;;;;0.01;73.41;102312.44;5014934;28;20283;-69
2022/04/28 00:14:52;;;;;;;4.93;3.27;;;;;;;0.00;72.91;102315.97;5015348;28;20364;-66
2022/04/28 00:17:18;;;;;;;3.63;2.60;;;;;;;0.05;72.87;102319.25;5015097;28;20260;-67
2022/04/28 00:19:43;;;;;;;3.57;2.40;;;;;;;-0.02;72.90;102304.66;5015359;28;20037;-68
2022/04/28 00:22:09;;;;;;;6.00;2.73;;;;;;;0.11;73.37;102319.03;5014935;28;20514;-68
2022/04/28 00:24:34;;;;;;;5.17;2.67;;;;;;;0.14;72.74;102313.66;5015101;28;20040;-71
2022/04/28 00:27:00;;;;;;;5.30;2.50;;;;;;;0.09;72.46;102294.66;5014725;28;20124;-69
2022/04/28 00:29:25;;;;;;;2.77;2.20;;;;;;;0.07;72.68;102296.47;5013489;28;20045;-68
2022/04/28 00:31:51;;;;;;;3.97;2.50;;;;;;;0.20;72.94;102315.19;5014966;28;20129;-66
2022/04/28 00:34:16;;;;;;;6.30;3.37;;;;;;;0.14;72.33;102300.56;5014868;28;20124;-66
2022/04/28 00:36:42;;;;;;;6.93;3.20;;;;;;;-0.07;72.60;102257.69;5014845;28;20374;-67
2022/04/28 00:39:07;;;;;;;7.00;3.47;;;;;;;0.23;72.14;102297.59;5016108;28;20088;-69
2022/04/28 00:41:33;;;;;;;3.77;2.57;;;;;;;0.40;71.96;102317.91;5015894;28;20058;-68
2022/04/28 00:43:59;;;;;;;3.33;2.57;;;;;;;0.34;71.81;102289.31;5015102;28;20029;-71
2022/04/28 00:46:25;;;;;;;8.23;4.07;;;;;;;0.52;71.78;102324.44;5014655;28;20033;-68
2022/04/28 00:51:35;;;;;;;3.73;2.70;;;;;;;0.69;70.71;102311.53;5014693;28;20038;-69
2022/04/28 00:54:02;;;;;;;7.50;2.73;;;;;;;0.58;70.14;102282.28;5014015;28;20268;-71
2022/04/28 00:56:30;;;;;;;4.67;2.27;;;;;;;0.79;70.08;102306.75;5014307;28;20038;-68
2022/04/28 00:59:02;;;;;;;7.23;2.50;;;;;;;0.48;69.51;102254.69;5012927;28;20299;-69
2022/04/28 01:01:31;;;;;;;6.60;3.67;;;;;;;0.81;69.88;102311.03;5014406;28;20273;-69
2022/04/28 01:03:57;;;;;;;6.35;3.00;;;;;;;0.79;69.88;102306.75;5014099;28;20755;-67
2022/04/28 01:06:23;;;;;;;4.87;3.43;;;;;;;0.62;69.94;102289.09;5013141;28;20050;-66
2022/04/28 01:08:49;;;;;;;5.40;3.07;;;;;;;0.56;70.17;102286.69;5013992;28;20269;-69
2022/04/28 01:11:18;;;;;;;5.30;2.90;;;;;;;0.55;70.60;102295.47;5013830;28;20042;-68
2022/04/28 01:13:44;;;;;;;4.22;3.05;;;;;;;0.42;70.89;102297.75;5014056;28;20300;-68
2022/04/28 01:16:11;;;;;;;6.37;3.67;;;;;;;0.34;71.23;102297.19;5013881;28;20041;-66
2022/04/28 01:18:37;;;;;;;6.87;4.20;;;;;;;0.26;71.80;102294.84;5014024;28;20273;-69
2022/04/28 01:21:04;;;;;;;10.33;3.50;;;;;;;0.17;71.59;102291.72;5014009;28;20277;-70
2022/04/28 01:23:31;;;;;;;8.47;4.53;;;;;;;-0.06;71.69;102280.34;5013941;28;20053;-68
2022/04/28 01:25:57;;;;;;;9.97;4.17;;;;;;;0.02;71.67;102303.66;5014216;28;20268;-69
2022/04/28 01:28:22;;;;;;;10.10;5.50;;;;;;;-0.09;72.05;102287.47;5014037;28;20768;-67
2022/04/28 01:30:48;;;;;;;4.73;4.13;;;;;;;-0.22;72.31;102278.38;5013539;28;20037;-68
2022/04/28 01:33:13;;;;;;;11.07;4.33;;;;;;;-0.12;72.13;102295.44;5013961;28;20449;-70
2022/04/28 01:35:39;;;;;;;10.83;5.10;;;;;;;-0.15;72.50;102291.19;5013498;28;20575;-65
2022/04/28 01:38:04;;;;;;;9.07;5.07;;;;;;;-0.38;72.09;102251.88;5013578;28;20087;-68
2022/04/28 01:40:30;;;;;;;8.53;3.97;;;;;;;-0.20;71.64;102292.25;5013597;28;20046;-67
2022/04/28 01:42:55;;;;;;;10.27;4.10;;;;;;;-0.28;71.97;102278.59;5012720;28;20030;-67
2022/04/28 01:45:21;;;;;;;6.77;3.90;;;;;;;-0.22;72.42;102289.69;5015950;28;20044;-69
2022/04/28 01:47:46;;;;;;;13.33;5.23;;;;;;;-0.34;72.37;102270.03;5016618;28;20396;-67
2022/04/28 01:50:12;;;;;;;7.43;4.33;;;;;;;-0.24;72.24;102286.28;5013250;28;20520;-67
2022/04/28 01:55:22;;;;;;;11.47;4.17;;;;;;;-0.33;71.80;102269.13;5013546;28;20319;-66
2022/04/28 01:57:52;;;;;;;7.73;4.00;;;;;;;-0.25;71.28;102292.44;5012891;28;20277;-67
2022/04/28 02:00:18;;;;;;;5.70;4.60;;;;;;;-0.31;72.02;102279.53;5013153;28;20057;-67
2022/04/28 02:02:45;;;;;;;5.50;3.77;;;;;;;-0.31;70.69;102280.41;5012995;28;20265;-69
2022/04/28 02:05:11;;;;;;;10.03;5.10;;;;;;;-0.25;70.76;102288.97;5012933;28;20033;-67
2022/04/28 02:07:37;;;;;;;9.20;3.60;;;;;;;-0.26;71.50;102287.25;5013408;28;20779;-68
2022/04/28 02:10:04;;;;;;;12.23;4.50;;;;;;;-0.27;70.71;102296.03;5011636;28;20293;-68
2022/04/28 02:12:30;;;;;;;4.70;3.87;;;;;;;-0.25;71.47;102299.44;5012857;28;20092;-69
2022/04/28 02:14:56;;;;;;;12.63;4.33;;;;;;;-0.28;70.55;102291.69;5012813;28;20260;-64
2022/04/28 02:17:26;;;;;;;9.83;4.30;;;;;;;-0.24;69.73;102303.75;5012377;28;20045;-65
2022/04/28 02:19:51;;;;;;;11.27;4.47;;;;;;;-0.25;69.74;102305.53;5012761;28;20128;-66
2022/04/28 02:22:17;;;;;;;8.77;3.80;;;;;;;-0.24;68.85;102307.22;5012731;28;20272;-66
2022/04/28 02:24:43;;;;;;;7.40;4.53;;;;;;;-0.21;69.02;102307.13;5013328;28;20073;-64
2022/04/28 02:27:09;;;;;;;10.50;4.33;;;;;;;-0.89;68.37;102186.59;5012960;28;20033;-67
2022/04/28 02:29:35;;;;;;;10.47;4.03;;;;;;;-0.28;68.66;102281.22;5012808;28;20045;-66
2022/04/28 02:32:01;;;;;;;14.97;4.53;;;;;;;-0.32;69.10;102278.69;5012336;28;20087;-65
2022/04/28 02:34:27;;;;;;;15.03;5.93;;;;;;;-0.23;69.67;102298.47;5012582;28;20128;-65
2022/04/28 02:36:53;;;;;;;11.67;4.70;;;;;;;-0.31;68.59;102279.53;5012760;28;20276;-65
2022/04/28 02:39:18;;;;;;;13.67;5.10;;;;;;;-0.17;69.57;102300.00;5012261;28;20281;-66
2022/04/28 02:41:45;;;;;;;7.23;3.50;;;;;;;-0.23;67.45;102284.53;5012363;28;20038;-65
2022/04/28 02:44:12;;;;;;;16.00;6.80;;;;;;;-0.23;68.44;102281.91;5012421;28;20484;-66
2022/04/28 02:46:38;;;;;;;11.37;5.03;;;;;;;-0.15;68.37;102291.19;5012308;28;20261;-66
2022/04/28 02:49:04;;;;;;;7.73;3.30;;;;;;;-0.16;67.50;102283.38;5012656;28;20272;-65
2022/04/28 02:51:30;;;;;;;9.27;4.10;;;;;;;-0.14;67.18;102282.41;5012926;28;20624;-65
2022/04/28 02:53:56;;;;;;;9.83;4.43;;;;;;;-0.12;67.78;102279.72;5012856;28;20115;-63
2022/04/28 02:56:21;;;;;;;6.90;3.60;;;;;;;-0.10;67.57;102264.81;5012399;28;20041;-63
2022/04/28 02:58:50;;;;;;;7.40;3.67;;;;;;;0.02;67.46;102285.31;5011965;28;20058;-65
2022/04/28 03:01:16;;;;;;;5.72;3.35;;;;;;;0.13;67.48;102285.75;5012145;28;20053;-64
2022/04/28 03:03:41;;;;;;;5.97;3.60;;;;;;;0.23;65.72;102287.09;5012324;28;20042;-64
2022/04/28 03:11:36;;;;;;;6.37;2.73;;;;;;;0.76;63.72;102284.13;5012045;28;20636;-65
2022/04/28 03:14:02;;;;;;;4.67;2.53;;;;;;;0.87;62.29;102262.72;5011955;28;20268;-66
2022/04/28 03:16:28;;;;;;;6.30;2.40;;;;;;;0.97;61.53;102242.19;5012170;28;20179;-67
2022/04/28 03:18:53;;;;;;;5.50;2.27;;;;;;;1.38;61.01;102287.66;5012183;28;20352;-66
2022/04/28 03:21:19;;;;;;;7.07;2.53;;;;;;;1.60;60.51;102269.19;5012170;28;20057;-65
2022/04/28 03:23:45;;;;;;;6.77;2.53;;;;;;;2.35;58.31;102248.22;5012029;28;20062;-64
2022/04/28 03:26:11;;;;;;;3.27;2.90;;;;;;;4.09;53.49;102270.84;5011767;28;20551;-65
2022/04/28 03:28:38;;;;;;;3.00;2.23;;;;;;;4.99;50.54;102271.84;5012240;28;20460;-66
2022/04/28 03:31:04;;;;;;;3.73;1.80;;;;;;;4.68;49.54;102227.06;5014980;28;20041;-65
2022/04/28 03:33:30;;;;;;;3.37;2.10;;;;;;;4.33;51.46;102259.75;5015881;28;20407;-66
2022/04/28 03:35:56;;;;;;;5.17;2.00;;;;;;;4.02;51.65;102265.88;5015834;28;20272;-69
2022/04/28 03:38:25;;;;;;;1.97;1.80;;;;;;;4.01;51.38;102285.25;4982289;28;20140;-70
2022/04/28 03:40:52;;;;;;;6.30;2.30;;;;;;;3.39;50.74;102243.81;5015222;28;20679;-72
2022/04/28 03:43:18;;;;;;;3.90;1.70;;;;;;;3.21;52.42;102292.19;5014300;28;20284;-66
2022/04/28 03:45:44;;;;;;;2.80;1.70;;;;;;;2.80;52.41;102290.66;5014248;28;20129;-68
2022/04/28 03:48:10;;;;;;;7.40;2.87;;;;;;;2.39;52.75;102291.81;5015433;28;20446;-69
2022/04/28 03:50:37;;;;;;;4.77;2.10;;;;;;;2.13;53.41;102278.13;5015379;28;20304;-68
2022/04/28 03:53:04;;;;;;;4.70;1.50;;;;;;;2.16;52.29;102291.13;5014073;28;20292;-65
2022/04/28 03:55:29;;;;;;;4.70;1.90;;;;;;;2.25;50.53;102268.81;5015242;28;20717;-66
2022/04/28 03:57:58;;;;;;;3.10;1.73;;;;;;;2.80;48.80;102293.31;5015120;28;20393;-66
2022/04/28 04:00:25;;;;;;;3.28;2.33;;;;;;;2.87;48.37;102287.72;5015111;28;20109;-65
2022/04/28 04:02:51;;;;;;;8.23;2.67;;;;;;;3.19;47.82;102302.78;5015223;28;20034;-68
2022/04/28 04:05:16;;;;;;;13.07;2.80;;;;;;;3.17;47.95;102285.34;5014998;28;20269;-67
2022/04/28 04:07:43;;;;;;;12.07;3.23;;;;;;;2.85;48.78;102265.91;5015003;28;20041;-65
2022/04/28 04:10:12;;;;;;;3.53;1.83;;;;;;;2.93;48.62;102292.72;5014799;28;20048;-66
2022/04/28 04:12:37;;;;;;;7.33;2.90;;;;;;;2.88;48.54;102305.22;5014944;28;20563;-64
2022/04/28 04:15:05;;;;;;;4.57;2.07;;;;;;;2.79;48.89;102307.38;5015135;28;20280;-65
2022/04/28 04:17:31;;;;;;;4.30;2.10;;;;;;;2.67;47.73;102297.47;5014988;28;20088;-68
2022/04/28 04:19:56;;;;;;;2.73;2.00;;;;;;;2.74;47.77;102295.38;5014829;28;20668;-67
2022/04/28 04:22:22;;;;;;;10.97;3.23;;;;;;;1.96;46.98;102180.81;5014651;28;20504;-67
2022/04/28 04:24:47;;;;;;;5.77;2.30;;;;;;;2.61;47.57;102283.78;5014922;28;20084;-66
2022/04/28 04:27:14;;;;;;;5.10;2.10;;;;;;;2.86;47.81;102313.19;5015044;28;20060;-66
2022/04/28 04:29:40;;;;;;;3.83;1.87;;;;;;;2.92;46.46;102327.84;5013337;28;20042;-67
2022/04/28 04:32:17;;;;;;;3.00;2.10;;;;;;;2.85;46.56;102305.38;5014784;28;20272;-67
2022/04/28 04:34:45;;;;;;;8.67;2.03;;;;;;;2.99;47.13;102324.00;5014638;28;20034;-65
2022/04/28 04:37:11;;;;;;;5.37;1.97;;;;;;;3.00;47.54;102321.28;5014351;28;20269;-67
2022/04/28 04:39:37;;;;;;;4.70;1.83;;;;;;;2.92;47.91;102319.97;5014732;28;20787;-67
2022/04/28 04:42:03;;;;;;;4.30;1.90;;;;;;;2.69;48.83;102300.88;5013052;28;20261;-67
2022/04/28 04:44:29;;;;;;;4.10;2.00;;;;;;;2.88;49.02;102326.28;5014409;28;20481;-67
2022/04/28 04:46:54;;;;;;;3.87;1.80;;;;;;;2.94;49.87;102323.38;5014418;28;20288;-66
2022/04/28 04:49:20;;;;;;;3.73;1.60;;;;;;;2.88;49.47;102299.97;5014216;28;20092;-67
2022/04/28 04:51:45;;;;;;;7.70;2.30;;;;;;;2.45;50.20;102257.34;5013922;28;20069;-68
2022/04/28 04:54:11;;;;;;;7.13;2.40;;;;;;;2.68;51.06;102286.03;5014132;28;20041;-66
2022/04/28 04:56:36;;;;;;;7.87;1.80;;;;;;;2.88;50.93;102300.81;5014618;28;20120;-66
2022/04/28 04:59:04;;;;;;;5.20;2.93;;;;;;;2.91;51.06;102303.31;5015293;28;20424;-68
2022/04/28 05:01:29;;;;;;;7.20;1.67;;;;;;;2.94;51.71;102312.84;5018890;28;20096;-65
2022/04/28 05:03:55;;;;;;;5.20;1.77;;;;;;;2.93;51.18;102311.13;5015936;28;20368;-65
2022/04/28 05:06:20;;;;;;;4.43;1.90;;;;;;;2.92;51.88;102301.53;5012712;28;20052;-63
2022/04/28 05:08:46;;;;;;;8.80;2.37;;;;;;;3.17;51.59;102317.78;5013802;28;20368;-65
2022/04/28 05:11:13;;;;;;;5.97;2.07;;;;;;;3.25;51.20;102326.19;5012224;28;20064;-65
2022/04/28 05:13:38;;;;;;;14.53;2.20;;;;;;;3.31;50.92;102320.59;5012400;28;20364;-64
2022/04/28 05:16:04;;;;;;;9.33;2.73;;;;;;;3.22;51.10;102305.28;5013914;28;20757;-65
2022/04/28 05:18:30;;;;;;;8.20;2.00;;;;;;;3.37;51.03;102303.63;5013474;28;20037;-67
2022/04/28 05:20:56;;;;;;;7.40;2.60;;;;;;;3.33;50.42;102316.09;5013651;28;20045;-65
2022/04/28 05:23:21;;;;;;;6.57;2.03;;;;;;;3.19;50.40;102299.31;5013745;28;20089;-63
2022/04/28 05:25:48;;;;;;;5.37;3.07;;;;;;;3.26;51.07;102319.97;5013525;28;20451;-67
2022/04/28 05:28:13;;;;;;;5.00;2.67;;;;;;;3.12;54.60;102314.53;5013853;28;20056;-66
2022/04/28 05:30:39;;;;;;;6.57;2.47;;;;;;;3.03;58.16;102330.81;5013463;28;20292;-69
2022/04/28 05:33:05;;;;;;;6.20;2.63;;;;;;;2.92;58.55;102319.97;5014002;28;20038;-69
2022/04/28 05:35:34;;;;;;;5.20;2.30;;;;;;;3.03;58.86;102320.28;5013410;28;20038;-67
2022/04/28 05:38:00;;;;;;;;;;;;;;;3.38;57.32;102324.63;5014384;28;20296;-72
2022/04/28 05:40:26;;;;;;;5.37;2.50;;;;;;;3.36;56.79;102302.78;5013550;28;19921;-76
2022/04/28 05:45:47;;;;;;;6.27;3.07;;;;;;;3.34;58.61;102319.59;5013923;28;20041;-67
2022/04/28 05:48:17;;;;;;;4.33;2.70;;;;;;;3.09;59.55;102309.44;5015358;28;20257;-70
2022/04/28 05:50:57;;;;;;;3.93;3.10;;;;;;;2.13;60.91;102201.91;5015402;28;20388;-71
2022/04/28 05:53:23;;;;;;;4.07;2.67;;;;;;;2.75;61.36;102337.41;5012205;28;20285;-66
2022/04/28 05:55:48;;;;;;;5.33;2.50;;;;;;;2.73;61.16;102331.38;5028397;28;20271;-67
2022/04/28 05:58:16;;;;;;;11.63;4.83;;;;;;;2.65;61.42;102325.63;5032704;28;20057;-68
2022/04/28 06:00:42;;;;;;;4.63;2.30;;;;;;;2.71;61.28;102335.84;5016308;28;20163;-68
2022/04/28 06:03:07;;;;;;;3.93;2.33;;;;;;;2.68;61.57;102330.75;5012865;28;20277;-63
2022/04/28 06:05:33;;;;;;;3.37;2.33;;;;;;;2.66;62.70;102337.84;5016391;28;20265;-67
2022/04/28 06:07:58;;;;;;;8.00;2.50;;;;;;;2.59;62.94;102352.19;5017234;28;20042;-68
2022/04/28 06:10:24;;;;;;;3.50;2.57;;;;;;;2.37;64.04;102325.22;5014354;28;20038;-70
2022/04/28 06:12:50;;;;;;;5.63;2.67;;;;;;;2.34;65.75;102331.47;5013012;28;20042;-70
2022/04/28 06:15:16;;;;;;;8.10;2.30;;;;;;;2.35;64.90;102338.44;5013847;28;20315;-69
2022/04/28 06:17:41;;;;;;;6.43;2.90;;;;;;;2.17;65.19;102290.19;5013154;28;20192;-72
2022/04/28 06:20:08;;;;;;;5.07;2.80;;;;;;;2.65;65.32;102340.56;5012155;28;20485;-71
2022/04/28 06:22:33;;;;;;;7.87;2.90;;;;;;;2.91;64.86;102345.41;5013471;28;20137;-71
2022/04/28 06:24:59;;;;;;;5.83;2.83;;;;;;;3.03;63.14;102338.69;5011270;28;20680;-67
2022/04/28 06:27:24;;;;;;;2.73;2.10;;;;;;;3.24;60.56;102345.53;5012514;28;20080;-69
2022/04/28 06:29:50;;;;;;;5.83;2.43;;;;;;;3.01;58.84;102337.91;5012761;28;20481;-72
2022/04/28 06:32:16;;;;;;;3.07;2.17;;;;;;;2.80;59.07;102335.41;5012725;28;20095;-68
2022/04/28 06:34:44;;;;;;;5.43;2.37;;;;;;;2.72;59.43;102347.22;4992742;28;20062;-63
2022/04/28 06:37:10;;;;;;;3.73;2.23;;;;;;;2.63;60.10;102338.00;4992763;28;20285;-67
2022/04/28 06:39:36;;;;;;;7.70;2.43;;;;;;;2.81;60.23;102336.25;4976621;28;20688;-69
2022/04/28 06:42:03;;;;;;;7.80;2.60;;;;;;;2.95;60.22;102319.81;4998154;28;20269;-69
2022/04/28 06:44:29;;;;;;;8.87;2.30;;;;;;;3.21;58.27;102329.03;4998157;28;20037;-67
2022/04/28 06:46:54;;;;;;;10.80;3.60;;;;;;;3.35;57.33;102311.59;4994624;28;20361;-68
2022/04/28 06:49:20;;;;;;;4.43;2.37;;;;;;;3.67;57.57;102338.06;4997371;28;20519;-67
2022/04/28 06:51:46;;;;;;;4.77;2.77;;;;;;;3.54;56.81;102327.31;4994051;28;20038;-65
2022/04/28 06:54:12;;;;;;;6.67;2.27;;;;;;;3.49;58.02;102346.94;4993897;28;20084;-64
2022/04/28 06:56:38;;;;;;;10.50;2.47;;;;;;;3.10;59.37;102350.63;4997725;28;20277;-65
2022/04/28 06:59:05;;;;;;;6.20;2.87;;;;;;;3.02;61.17;102351.00;4994705;28;20760;-64
2022/04/28 07:01:31;;;;;;;3.67;2.57;;;;;;;2.77;61.12;102319.75;4993496;28;20038;-63
2022/04/28 07:03:57;;;;;;;3.47;2.10;;;;;;;2.88;61.35;102337.66;4996329;28;20281;-69
2022/04/28 07:06:22;;;;;;;7.03;2.67;;;;;;;3.11;61.01;102336.53;4992552;28;20281;-65
2022/04/28 07:08:48;;;;;;;4.50;2.00;;;;;;;3.47;59.99;102335.59;4994269;28;20038;-62
2022/04/28 07:11:13;;;;;;;5.87;2.20;;;;;;;3.70;59.31;102316.81;4992679;28;20133;-63
2022/04/28 07:13:39;;;;;;;4.53;2.20;;;;;;;3.85;58.50;102323.94;4992274;28;20047;-64
2022/04/28 07:16:05;;;;;;;5.00;3.17;;;;;;;3.86;58.22;102327.44;4991017;28;20042;-63
2022/04/28 07:18:31;;;;;;;5.23;2.27;;;;;;;3.80;58.97;102304.88;4992513;28;20030;-65
2022/04/28 07:20:59;;;;;;;8.37;2.63;;;;;;;3.58;59.48;102296.41;4992257;28;20081;-65
2022/04/28 07:23:25;;;;;;;3.28;2.20;;;;;;;3.65;60.89;102309.16;4992192;28;20266;-63
2022/04/28 07:25:50;;;;;;;4.97;2.20;;;;;;;3.77;60.30;102317.38;4992099;28;20053;-65
2022/04/28 07:28:16;;;;;;;4.60;3.00;;;;;;;3.59;59.60;102284.94;4990776;28;20562;-67
2022/04/28 07:30:41;;;;;;;8.17;4.83;;;;;;;3.31;58.20;102310.06;4990773;28;20034;-63
2022/04/28 07:33:08;;;;;;;4.77;2.63;;;;;;;3.07;59.51;102317.41;4992155;28;20232;-68
2022/04/28 07:35:34;;;;;;;4.30;2.50;;;;;;;2.87;59.60;102308.78;4992245;28;20034;-71
2022/04/28 07:38:00;;;;;;;10.67;3.50;;;;;;;2.87;59.68;102316.69;4991063;28;20300;-62
2022/04/28 07:40:26;;;;;;;14.17;6.03;;;;;;;2.94;60.82;102313.69;4992115;28;20270;-70
2022/04/28 07:42:52;;;;;;;4.53;2.70;;;;;;;3.08;59.28;102302.47;4992714;28;20273;-61
2022/04/28 07:45:17;;;;;;;6.77;3.13;;;;;;;3.17;57.98;102275.66;4991210;28;20046;-65
2022/04/28 07:47:43;;;;;;;6.00;3.50;;;;;;;3.81;57.78;102303.94;4992425;28;20034;-70
2022/04/28 07:50:10;;;;;;;4.70;3.00;;;;;;;3.64;56.64;102183.63;4991683;28;20042;-68
2022/04/28 07:52:37;;;;;;;6.33;2.80;;;;;;;4.70;53.77;102273.53;4990490;28;20382;-66
2022/04/28 07:55:04;;;;;;;6.53;3.10;;;;;;;4.91;51.57;102285.47;4991010;28;20352;-69
2022/04/28 07:57:30;;;;;;;4.93;3.00;;;;;;;5.01;50.35;102304.28;4991858;28;20337;-66
2022/04/28 07:59:56;;;;;;;5.27;2.23;;;;;;;4.79;50.29;102315.22;4991686;28;20761;-65
2022/04/28 08:02:21;;;;;;;7.87;1.93;;;;;;;4.60;51.82;102331.22;4991901;28;20413;-72
2022/04/28 08:04:47;;;;;;;3.70;1.80;;;;;;;4.13;55.28;102336.50;4974508;28;20274;-64
2022/04/28 08:07:13;;;;;;;4.63;1.77;;;;;;;3.62;57.21;102308.47;4992129;28;20042;-67
2022/04/28 08:09:38;;;;;;;4.87;1.87;;;;;;;3.46;58.25;102316.31;4991453;28;20052;-71
2022/04/28 08:12:05;;;;;;;3.20;1.67;;;;;;;3.54;58.22;102332.59;4992172;28;20038;-70
2022/04/28 08:14:33;;;;;;;2.23;1.70;;;;;;;3.55;57.87;102309.72;4993671;28;20502;-67
2022/04/28 08:16:59;;;;;;;7.13;1.97;;;;;;;3.74;52.99;102303.41;4994958;28;20391;-69
2022/04/28 08:19:25;;;;;;;7.77;1.40;;;;;;;3.84;52.59;102280.06;4995813;28;20038;-72
2022/04/28 08:21:50;;;;;;;1.40;1.30;;;;;;;3.96;50.27;102268.84;4995691;28;20037;-69
2022/04/28 08:24:16;;;;;;;2.70;1.40;;;;;;;4.12;51.80;102273.31;4978013;28;20048;-68
2022/04/28 08:26:42;;;;;;;4.53;1.53;;;;;;;4.28;53.59;102271.50;4995258;28;20060;-68
2022/04/28 08:29:08;;;;;;;3.37;2.20;;;;;;;4.41;54.98;102275.19;4994991;28;20364;-71
2022/04/28 08:31:34;;;;;;;2.53;1.57;;;;;;;4.29;52.73;102268.78;4995038;28;20046;-68
2022/04/28 08:34:00;;;;;;;2.33;1.70;;;;;;;4.36;52.58;102261.41;4994955;28;20030;-71
2022/04/28 08:36:25;;;;;;;3.00;1.93;;;;;;;4.31;52.82;102239.69;4994899;28;20133;-70
2022/04/28 08:38:52;;;;;;;2.57;1.60;;;;;;;4.67;51.98;102273.72;4994586;28;20048;-67
2022/04/28 08:41:36;;;;;;;4.17;1.60;;;;;;;4.75;50.14;102246.88;4994905;28;20460;-70
2022/04/28 08:44:04;;;;;;;2.43;1.70;;;;;;;4.92;49.61;102262.59;4995009;28;20274;-71
2022/04/28 08:49:16;;;;;;;8.50;2.50;;;;;;;5.02;47.82;102203.00;4994469;28;20039;-66
2022/04/28 08:51:43;;;;;;;6.40;2.87;;;;;;;5.46;47.64;102241.72;4994780;28;20305;-74
2022/04/28 08:54:11;;;;;;;5.20;2.07;;;;;;;5.77;46.68;102232.75;4994770;28;20273;-66
2022/04/28 08:56:36;;;;;;;2.30;1.77;;;;;;;5.92;42.48;102223.06;4994571;28;20651;-70
2022/04/28 08:59:03;;;;;;;6.73;2.03;;;;;;;6.15;42.61;102248.91;4993442;28;20348;-71
2022/04/28 09:01:29;;;;;;;9.90;1.80;;;;;;;6.01;40.94;102244.47;4994549;28;20042;-72
2022/04/28 09:03:55;;;;;;;4.00;1.53;;;;;;;5.73;41.76;102225.97;4994625;28;20282;-69
2022/04/28 09:06:23;;;;;;;6.97;2.23;;;;;;;5.76;41.38;102234.56;4995082;28;20030;-66
2022/04/28 09:08:50;;;;;;;3.83;1.60;;;;;;;5.74;41.49;102244.38;4994257;28;20262;-65
2022/04/28 09:11:23;;;;;;;3.20;1.40;;;;;;;5.38;41.76;102209.66;4994390;28;20305;-70
2022/04/28 09:14:10;;;;;;;5.20;1.93;;;;;;;5.62;42.93;102253.06;4994584;28;20265;-72
2022/04/28 09:16:37;;;;;;;4.07;1.40;;;;;;;5.71;41.69;102263.06;4994112;28;20317;-65
2022/04/28 09:19:03;;;;;;;5.87;2.17;;;;;;;5.54;43.03;102202.50;4994414;28;20345;-63
2022/04/28 09:21:33;;;;;;;1.73;1.40;;;;;;;6.06;43.75;102220.38;4994077;28;20365;-65
2022/04/28 09:23:58;;;;;;;3.33;1.50;;;;;;;6.36;40.72;102244.91;4994093;28;20042;-71
2022/04/28 09:26:24;;;;;;;3.80;1.77;;;;;;;6.51;40.32;102248.31;4994107;28;20269;-70
2022/04/28 09:28:52;;;;;;;7.57;2.07;;;;;;;6.36;39.33;102221.06;4993290;28;20042;-72
2022/04/28 09:31:21;;;;;;;5.50;2.07;;;;;;;6.30;39.70;102213.50;4994188;28;20037;-72
2022/04/28 09:33:50;;;;;;;4.40;1.90;;;;;;;6.41;40.72;102208.38;4993807;28;20038;-69
2022/04/28 09:36:16;;;;;;;3.70;1.90;;;;;;;6.56;39.39;102245.38;4994031;28;20034;-71
2022/04/28 09:38:41;;;;;;;14.47;2.53;;;;;;;6.45;40.28;102257.53;4976694;28;20035;-72
2022/04/28 09:43:56;;;;;;;10.77;3.10;;;;;;;5.88;46.39;102276.09;4996731;28;20073;-65
2022/04/28 09:46:23;;;;;;;7.23;2.27;;;;;;;5.80;47.41;102264.31;4995878;28;20034;-67
2022/04/28 09:48:50;;;;;;;4.33;2.00;;;;;;;6.06;45.01;102273.28;4993485;28;20266;-65
2022/04/28 09:51:23;;;;;;;4.43;1.90;;;;;;;6.13;43.17;102264.03;4993297;28;20324;-65
2022/04/28 09:53:53;;;;;;;9.03;1.80;;;;;;;6.32;42.17;102268.97;4997514;28;20318;-67
2022/04/28 09:56:28;;;;;;;8.47;1.70;;;;;;;6.36;43.30;102271.34;4977603;28;20334;-67
2022/04/28 09:58:55;;;;;;;2.83;1.80;;;;;;;6.27;41.99;102269.28;4995746;28;20745;-66
2022/04/28 10:01:21;;;;;;;9.27;1.97;;;;;;;5.97;42.86;102234.19;4999267;28;20292;-65
2022/04/28 10:03:47;;;;;;;2.97;1.60;;;;;;;6.08;42.88;102255.53;4996862;28;20645;-67
2022/04/28 10:06:13;;;;;;;5.73;2.00;;;;;;;6.25;42.91;102289.69;4993026;28;20034;-70
2022/04/28 10:08:41;;;;;;;5.73;2.17;;;;;;;6.05;43.84;102283.00;4975740;28;20291;-66
2022/04/28 10:11:11;;;;;;;20.08;3.38;;;;;;;5.99;47.68;102309.00;4992955;28;20440;-69
2022/04/28 10:13:39;;;;;;;11.90;2.43;;;;;;;5.75;53.34;102319.25;4993143;28;20515;-67
2022/04/28 10:16:11;;;;;;;5.10;1.90;;;;;;;5.40;57.66;102318.72;4993358;28;20261;-65
2022/04/28 10:18:48;;;;;;;7.77;1.93;;;;;;;5.26;60.82;102324.84;4993147;28;20278;-68
2022/04/28 10:21:17;;;;;;;20.83;2.80;;;;;;;5.24;60.87;102330.22;4992877;28;20264;-72
2022/04/28 10:35:02;;;;;;;3.27;1.73;;;;;;;3.11;68.98;102366.34;4975110;28;20325;-68
2022/04/28 10:37:36;;;;;;;2.73;2.10;;;;;;;3.04;70.26;102374.63;4992505;28;20384;-66
2022/04/28 10:40:03;;;;;;;4.87;1.97;;;;;;;2.64;71.08;102339.72;4992784;28;20281;-68
2022/04/28 10:42:30;;;;;;;3.97;2.10;;;;;;;3.02;70.88;102364.16;4992697;28;20823;-64
2022/04/28 10:44:57;;;;;;;3.17;2.27;;;;;;;3.19;69.71;102330.91;4992583;28;20278;-68
2022/04/28 10:47:29;;;;;;;2.40;2.20;;;;;;;3.56;70.92;102345.69;4992684;28;20312;-71
2022/04/28 10:49:55;;;;;;;3.80;2.30;;;;;;;3.83;68.67;102336.34;4992246;28;20282;-66
2022/04/28 10:52:22;;;;;;;4.00;2.40;;;;;;;4.20;67.70;102321.19;4992903;28;20269;-67
2022/04/28 10:54:52;;;;;;;4.73;2.30;;;;;;;4.77;63.55;102332.09;4992605;28;20137;-70
2022/04/28 10:57:31;;;;;;;3.73;2.20;;;;;;;5.26;62.30;102330.13;4992351;28;20309;-64
2022/04/28 10:59:56;;;;;;;6.38;2.75;;;;;;;5.48;61.88;102309.38;4992464;28;20301;-64
2022/04/28 11:02:23;;;;;;;6.93;2.63;;;;;;;5.72;58.18;102293.84;4992353;28;20489;-69
2022/04/28 11:04:54;;;;;;;4.17;1.40;;;;;;;6.14;55.16;102313.34;4993829;28;20042;-70
2022/04/28 11:07:24;;;;;;;4.17;1.70;;;;;;;6.58;56.08;102301.72;4993841;28;20273;-70
2022/04/28 11:09:56;;;;;;;2.53;2.07;;;;;;;6.72;53.15;102285.78;4992217;28;20335;-67
2022/04/28 11:12:23;;;;;;;4.70;1.90;;;;;;;6.83;54.00;102309.75;4992496;28;20265;-65
2022/04/28 11:15:00;;;;;;;2.97;2.10;;;;;;;6.62;54.01;102266.16;4992019;28;20034;-62
2022/04/28 11:17:28;;;;;;;2.27;1.67;;;;;;;6.72;51.38;102293.72;4992127;28;20034;-68
2022/04/28 11:20:21;;;;;;;3.53;2.10;;;;;;;6.66;51.52;102307.38;4992312;28;20489;-68
2022/04/28 11:22:51;;;;;;;4.33;2.00;;;;;;;6.47;50.75;102292.69;4991936;28;20112;-71
2022/04/28 11:25:19;;;;;;;7.77;1.70;;;;;;;6.19;47.67;102276.84;4992101;28;20061;-73
2022/04/28 11:27:48;;;;;;;4.40;1.95;;;;;;;6.07;46.24;102294.38;4993325;28;20034;-62
2022/04/28 11:30:19;;;;;;;3.90;2.03;;;;;;;5.96;46.52;102283.59;4994609;28;20092;-69
2022/04/28 11:32:56;;;;;;;5.23;1.80;;;;;;;6.00;47.70;102297.47;4993714;28;20121;-68
2022/04/28 11:35:28;;;;;;;3.50;1.87;;;;;;;5.78;44.77;102280.28;4992669;28;20038;-68
2022/04/28 11:37:55;;;;;;;5.73;1.77;;;;;;;5.51;46.95;102261.66;4991810;28;20502;-68
2022/04/28 11:40:22;;;;;;;3.63;2.00;;;;;;;5.57;47.72;102271.00;4992233;28;20081;-71
2022/04/28 11:42:55;;;;;;;5.60;2.10;;;;;;;5.34;48.47;102258.34;4974405;28;20038;-67
2022/04/28 11:45:21;;;;;;;9.73;3.20;;;;;;;5.42;50.41;102283.34;4992631;28;20038;-66
2022/04/28 11:47:49;;;;;;;6.17;1.87;;;;;;;5.52;49.40;102262.53;4991672;28;20089;-66
2022/04/28 11:50:26;;;;;;;8.87;2.00;;;;;;;5.57;48.71;102281.59;4993797;28;20034;-67
2022/04/28 11:53:06;;;;;;;8.43;1.90;;;;;;;5.45;48.34;102274.38;5004406;28;20273;-69
2022/04/28 11:55:35;;;;;;;13.53;2.20;;;;;;;5.43;46.25;102253.34;5004660;28;20360;-68
2022/04/28 11:58:06;;;;;;;6.10;1.40;;;;;;;5.72;43.99;102256.84;5001714;28;20077;-68
2022/04/28 12:00:43;;;;;;;7.53;2.10;;;;;;;5.93;44.81;102254.69;4999552;28;20773;-66